sensor_id;sensor_type;location;lat;lon;timestamp;temperature;humidity
81311;DHT22;70779;52.506;5.492;2023-11-21T05:47:43;13.00;73.70
81311;DHT22;70779;52.506;5.492;2023-11-21T05:50:13;13.00;73.70
81311;DHT22;70779;52.506;5.492;2023-11-21T05:52:43;13.00;73.50
81311;DHT22;70779;52.506;5.492;2023-11-21T05:55:10;13.00;73.60
81311;DHT22;70779;52.506;5.492;2023-11-21T05:57:37;13.10;73.60
81311;DHT22;70779;52.506;5.492;2023-11-21T06:02:39;13.10;73.50
81311;DHT22;70779;52.506;5.492;2023-11-21T06:05:10;13.10;73.50
81311;DHT22;70779;52.506;5.492;2023-11-21T06:07:37;13.10;73.60
81311;DHT22;70779;52.506;5.492;2023-11-21T06:10:11;13.10;73.60
81311;DHT22;70779;52.506;5.492;2023-11-21T06:12:40;13.10;73.60
81311;DHT22;70779;52.506;5.492;2023-11-21T06:15:09;13.10;73.70
81311;DHT22;70779;52.506;5.492;2023-11-21T06:17:36;13.10;73.80
81311;DHT22;70779;52.506;5.492;2023-11-21T06:20:06;13.00;73.90
81311;DHT22;70779;52.506;5.492;2023-11-21T06:22:36;13.00;74.10
81311;DHT22;70779;52.506;5.492;2023-11-21T06:25:03;12.90;74.30
81311;DHT22;70779;52.506;5.492;2023-11-21T06:27:42;12.90;74.50
81311;DHT22;70779;52.506;5.492;2023-11-21T06:30:11;12.80;74.70
81311;DHT22;70779;52.506;5.492;2023-11-21T06:32:38;12.70;75.10
81311;DHT22;70779;52.506;5.492;2023-11-21T06:35:06;12.70;75.10
81311;DHT22;70779;52.506;5.492;2023-11-21T06:37:33;12.70;75.20
81311;DHT22;70779;52.506;5.492;2023-11-21T06:40:00;12.60;75.40
81311;DHT22;70779;52.506;5.492;2023-11-21T06:42:26;12.50;75.60
81311;DHT22;70779;52.506;5.492;2023-11-21T06:44:53;12.50;75.60
81311;DHT22;70779;52.506;5.492;2023-11-21T06:47:27;12.70;75.50
81311;DHT22;70779;52.506;5.492;2023-11-21T06:49:56;12.70;75.30
81311;DHT22;70779;52.506;5.492;2023-11-21T06:52:23;12.70;75.40
81311;DHT22;70779;52.506;5.492;2023-11-21T06:54:49;12.70;75.40
81311;DHT22;70779;52.506;5.492;2023-11-21T06:57:18;12.80;75.30
81311;DHT22;70779;52.506;5.492;2023-11-21T06:59:44;12.90;75.20
81311;DHT22;70779;52.506;5.492;2023-11-21T07:02:10;12.90;75.30
81311;DHT22;70779;52.506;5.492;2023-11-21T07:04:36;12.90;75.40
81311;DHT22;70779;52.506;5.492;2023-11-21T07:07:03;12.90;75.30
81311;DHT22;70779;52.506;5.492;2023-11-21T07:09:30;12.90;75.40
81311;DHT22;70779;52.506;5.492;2023-11-21T07:11:57;12.90;75.50
81311;DHT22;70779;52.506;5.492;2023-11-21T07:14:23;12.80;75.60
81311;DHT22;70779;52.506;5.492;2023-11-21T07:16:49;12.80;75.50
81311;DHT22;70779;52.506;5.492;2023-11-21T07:19:15;12.80;75.60
81311;DHT22;70779;52.506;5.492;2023-11-21T07:21:41;12.80;75.50
81311;DHT22;70779;52.506;5.492;2023-11-21T07:24:08;12.80;75.70
81311;DHT22;70779;52.506;5.492;2023-11-21T07:26:35;12.80;75.40
81311;DHT22;70779;52.506;5.492;2023-11-21T07:29:04;12.80;75.50
81311;DHT22;70779;52.506;5.492;2023-11-21T07:31:30;12.80;75.50
81311;DHT22;70779;52.506;5.492;2023-11-21T07:33:58;12.80;75.30
81311;DHT22;70779;52.506;5.492;2023-11-21T07:36:24;12.90;75.40
81311;DHT22;70779;52.506;5.492;2023-11-21T07:38:50;12.80;75.40
81311;DHT22;70779;52.506;5.492;2023-11-21T07:41:17;12.90;75.10
81311;DHT22;70779;52.506;5.492;2023-11-21T07:43:44;12.80;75.00
81311;DHT22;70779;52.506;5.492;2023-11-21T07:46:11;12.80;75.20
81311;DHT22;70779;52.506;5.492;2023-11-21T07:48:39;12.90;75.00
81311;DHT22;70779;52.506;5.492;2023-11-21T07:51:06;12.90;75.10
81311;DHT22;70779;52.506;5.492;2023-11-21T07:53:35;12.90;74.80
81311;DHT22;70779;52.506;5.492;2023-11-21T07:56:06;12.90;74.90
81311;DHT22;70779;52.506;5.492;2023-11-21T07:58:34;12.90;75.00
81311;DHT22;70779;52.506;5.492;2023-11-21T08:01:02;13.00;74.80
81311;DHT22;70779;52.506;5.492;2023-11-21T08:03:28;13.00;74.60
81311;DHT22;70779;52.506;5.492;2023-11-21T08:06:00;13.00;74.60
81311;DHT22;70779;52.506;5.492;2023-11-21T08:08:29;13.10;74.50
81311;DHT22;70779;52.506;5.492;2023-11-21T08:10:55;13.10;74.20
81311;DHT22;70779;52.506;5.492;2023-11-21T08:13:24;13.10;74.30
81311;DHT22;70779;52.506;5.492;2023-11-21T08:15:54;13.10;73.80
81311;DHT22;70779;52.506;5.492;2023-11-21T08:18:20;13.20;73.80
81311;DHT22;70779;52.506;5.492;2023-11-21T08:20:46;13.30;73.80
81311;DHT22;70779;52.506;5.492;2023-11-21T08:23:15;13.30;73.10
81311;DHT22;70779;52.506;5.492;2023-11-21T08:25:45;13.30;72.70
81311;DHT22;70779;52.506;5.492;2023-11-21T08:28:11;13.10;73.00
81311;DHT22;70779;52.506;5.492;2023-11-21T08:30:37;13.10;72.80
81311;DHT22;70779;52.506;5.492;2023-11-21T08:33:04;13.00;72.90
81311;DHT22;70779;52.506;5.492;2023-11-21T08:35:31;12.90;73.30
81311;DHT22;70779;52.506;5.492;2023-11-21T08:37:57;13.00;73.20
81311;DHT22;70779;52.506;5.492;2023-11-21T08:40:23;12.90;73.30
81311;DHT22;70779;52.506;5.492;2023-11-21T08:42:49;12.90;73.40
81311;DHT22;70779;52.506;5.492;2023-11-21T08:45:18;12.80;73.70
81311;DHT22;70779;52.506;5.492;2023-11-21T08:47:44;12.80;74.00
81311;DHT22;70779;52.506;5.492;2023-11-21T08:50:11;12.70;74.20
81311;DHT22;70779;52.506;5.492;2023-11-21T08:52:38;12.70;74.30
81311;DHT22;70779;52.506;5.492;2023-11-21T08:55:07;12.70;74.40
81311;DHT22;70779;52.506;5.492;2023-11-21T08:57:38;12.70;74.30
81311;DHT22;70779;52.506;5.492;2023-11-21T09:00:07;12.70;74.40
81311;DHT22;70779;52.506;5.492;2023-11-21T09:02:38;12.70;74.10
81311;DHT22;70779;52.506;5.492;2023-11-21T09:05:08;12.60;74.20
81311;DHT22;70779;52.506;5.492;2023-11-21T09:07:36;12.50;74.30
81311;DHT22;70779;52.506;5.492;2023-11-21T09:10:05;12.50;74.30
81311;DHT22;70779;52.506;5.492;2023-11-21T09:12:34;12.50;74.40
81311;DHT22;70779;52.506;5.492;2023-11-21T09:15:07;12.60;74.30
81311;DHT22;70779;52.506;5.492;2023-11-21T09:17:35;12.70;74.20
81311;DHT22;70779;52.506;5.492;2023-11-21T09:20:02;12.70;73.80
81311;DHT22;70779;52.506;5.492;2023-11-21T09:22:29;12.70;73.90
81311;DHT22;70779;52.506;5.492;2023-11-21T09:24:57;12.70;73.80
81311;DHT22;70779;52.506;5.492;2023-11-21T09:27:24;12.70;73.80
81311;DHT22;70779;52.506;5.492;2023-11-21T09:29:51;12.70;73.80
81311;DHT22;70779;52.506;5.492;2023-11-21T09:32:19;12.70;73.80
81311;DHT22;70779;52.506;5.492;2023-11-21T09:34:51;12.70;73.70
81311;DHT22;70779;52.506;5.492;2023-11-21T09:37:17;12.80;73.70
81311;DHT22;70779;52.506;5.492;2023-11-21T09:39:43;12.80;73.50
81311;DHT22;70779;52.506;5.492;2023-11-21T09:42:15;12.80;73.40
81311;DHT22;70779;52.506;5.492;2023-11-21T09:44:54;12.80;73.20
81311;DHT22;70779;52.506;5.492;2023-11-21T09:47:24;12.80;73.50
81311;DHT22;70779;52.506;5.492;2023-11-21T09:49:54;12.80;73.50
81311;DHT22;70779;52.506;5.492;2023-11-21T09:52:27;12.80;73.50
81311;DHT22;70779;52.506;5.492;2023-11-21T09:54:54;12.80;73.40
81311;DHT22;70779;52.506;5.492;2023-11-21T09:57:24;12.80;73.40
81311;DHT22;70779;52.506;5.492;2023-11-21T09:59:52;12.80;72.90
81311;DHT22;70779;52.506;5.492;2023-11-21T10:02:28;12.80;73.30
81311;DHT22;70779;52.506;5.492;2023-11-21T10:04:59;12.80;73.00
81311;DHT22;70779;52.506;5.492;2023-11-21T10:07:27;12.80;72.90
81311;DHT22;70779;52.506;5.492;2023-11-21T10:09:54;12.70;72.80
81311;DHT22;70779;52.506;5.492;2023-11-21T10:12:22;12.70;72.90
81311;DHT22;70779;52.506;5.492;2023-11-21T10:14:50;12.60;73.20
81311;DHT22;70779;52.506;5.492;2023-11-21T10:17:19;12.70;73.40
81311;DHT22;70779;52.506;5.492;2023-11-21T10:19:47;12.70;73.40
81311;DHT22;70779;52.506;5.492;2023-11-21T10:22:16;12.70;73.00
81311;DHT22;70779;52.506;5.492;2023-11-21T10:24:43;12.80;73.00
81311;DHT22;70779;52.506;5.492;2023-11-21T10:27:09;12.80;73.10
81311;DHT22;70779;52.506;5.492;2023-11-21T10:29:35;12.80;72.90
81311;DHT22;70779;52.506;5.492;2023-11-21T10:32:02;12.80;73.00
81311;DHT22;70779;52.506;5.492;2023-11-21T10:34:29;12.80;73.30
81311;DHT22;70779;52.506;5.492;2023-11-21T10:36:55;12.90;73.00
81311;DHT22;70779;52.506;5.492;2023-11-21T10:39:24;12.80;73.10
81311;DHT22;70779;52.506;5.492;2023-11-21T10:41:55;12.70;73.20
81311;DHT22;70779;52.506;5.492;2023-11-21T10:44:21;12.70;73.60
81311;DHT22;70779;52.506;5.492;2023-11-21T10:46:54;12.80;73.40
81311;DHT22;70779;52.506;5.492;2023-11-21T10:49:25;12.80;73.40
81311;DHT22;70779;52.506;5.492;2023-11-21T10:51:53;12.80;73.60
81311;DHT22;70779;52.506;5.492;2023-11-21T10:54:23;12.80;73.80
81311;DHT22;70779;52.506;5.492;2023-11-21T10:56:56;12.80;73.70
81311;DHT22;70779;52.506;5.492;2023-11-21T10:59:22;12.90;73.70
81311;DHT22;70779;52.506;5.492;2023-11-21T11:01:51;12.90;73.60
81311;DHT22;70779;52.506;5.492;2023-11-21T11:04:19;13.00;73.50
81311;DHT22;70779;52.506;5.492;2023-11-21T11:06:55;13.00;73.40
81311;DHT22;70779;52.506;5.492;2023-11-21T11:09:23;13.00;73.20
81311;DHT22;70779;52.506;5.492;2023-11-21T11:11:50;13.00;73.00
81311;DHT22;70779;52.506;5.492;2023-11-21T11:14:17;13.00;73.30
81311;DHT22;70779;52.506;5.492;2023-11-21T11:16:45;13.00;73.20
81311;DHT22;70779;52.506;5.492;2023-11-21T11:19:11;13.00;72.90
81311;DHT22;70779;52.506;5.492;2023-11-21T11:24:45;12.90;72.70
81311;DHT22;70779;52.506;5.492;2023-11-21T11:27:37;12.90;72.50
81311;DHT22;70779;52.506;5.492;2023-11-21T11:33:21;12.90;72.50
81311;DHT22;70779;52.506;5.492;2023-11-21T11:36:04;12.90;72.70
81311;DHT22;70779;52.506;5.492;2023-11-21T11:38:32;12.90;72.60
81311;DHT22;70779;52.506;5.492;2023-11-21T11:41:02;12.80;72.80
81311;DHT22;70779;52.506;5.492;2023-11-21T11:43:32;12.80;72.60
81311;DHT22;70779;52.506;5.492;2023-11-21T11:46:01;12.80;72.80
81311;DHT22;70779;52.506;5.492;2023-11-21T11:48:29;12.80;72.70
81311;DHT22;70779;52.506;5.492;2023-11-21T11:53:39;12.70;72.60
81311;DHT22;70779;52.506;5.492;2023-11-21T11:58:55;12.60;73.00
81311;DHT22;70779;52.506;5.492;2023-11-21T12:01:23;12.50;73.40
81311;DHT22;70779;52.506;5.492;2023-11-21T12:06:43;12.50;73.80
81311;DHT22;70779;52.506;5.492;2023-11-21T12:09:28;12.50;73.70
81311;DHT22;70779;52.506;5.492;2023-11-21T12:11:56;12.50;73.90
81311;DHT22;70779;52.506;5.492;2023-11-21T12:14:24;12.50;74.10
81311;DHT22;70779;52.506;5.492;2023-11-21T12:16:51;12.50;74.00
81311;DHT22;70779;52.506;5.492;2023-11-21T12:19:17;12.60;74.00
81311;DHT22;70779;52.506;5.492;2023-11-21T12:21:44;12.70;73.90
81311;DHT22;70779;52.506;5.492;2023-11-21T12:24:10;12.70;73.70
81311;DHT22;70779;52.506;5.492;2023-11-21T12:26:40;12.70;73.30
81311;DHT22;70779;52.506;5.492;2023-11-21T12:29:06;12.70;73.40
81311;DHT22;70779;52.506;5.492;2023-11-21T12:31:34;12.70;73.00
81311;DHT22;70779;52.506;5.492;2023-11-21T12:34:00;12.70;73.50
81311;DHT22;70779;52.506;5.492;2023-11-21T12:36:27;12.70;71.80
81311;DHT22;70779;52.506;5.492;2023-11-21T12:38:56;12.60;72.60
81311;DHT22;70779;52.506;5.492;2023-11-21T12:41:22;12.60;72.50
81311;DHT22;70779;52.506;5.492;2023-11-21T12:43:49;12.50;71.10
81311;DHT22;70779;52.506;5.492;2023-11-21T12:46:15;12.50;71.10
81311;DHT22;70779;52.506;5.492;2023-11-21T12:48:44;12.50;71.00
81311;DHT22;70779;52.506;5.492;2023-11-21T12:51:12;12.30;70.60
81311;DHT22;70779;52.506;5.492;2023-11-21T12:53:40;12.20;71.60
81311;DHT22;70779;52.506;5.492;2023-11-21T12:56:10;12.30;71.00
81311;DHT22;70779;52.506;5.492;2023-11-21T12:58:40;12.30;71.20
81311;DHT22;70779;52.506;5.492;2023-11-21T13:01:13;12.40;71.10
81311;DHT22;70779;52.506;5.492;2023-11-21T13:03:47;12.50;71.20
81311;DHT22;70779;52.506;5.492;2023-11-21T13:06:18;12.50;71.20
81311;DHT22;70779;52.506;5.492;2023-11-21T13:08:45;12.50;71.00
81311;DHT22;70779;52.506;5.492;2023-11-21T13:11:11;12.50;70.00
81311;DHT22;70779;52.506;5.492;2023-11-21T13:13:41;12.40;70.50
81311;DHT22;70779;52.506;5.492;2023-11-21T13:16:08;12.40;70.50
81311;DHT22;70779;52.506;5.492;2023-11-21T13:18:35;12.30;70.50
81311;DHT22;70779;52.506;5.492;2023-11-21T13:21:04;12.20;70.30
81311;DHT22;70779;52.506;5.492;2023-11-21T13:23:40;12.30;70.70
81311;DHT22;70779;52.506;5.492;2023-11-21T13:26:08;12.30;70.10
81311;DHT22;70779;52.506;5.492;2023-11-21T13:28:35;12.30;70.20
81311;DHT22;70779;52.506;5.492;2023-11-21T13:31:04;12.30;70.20
81311;DHT22;70779;52.506;5.492;2023-11-21T13:33:49;12.30;69.70
81311;DHT22;70779;52.506;5.492;2023-11-21T13:36:24;12.30;70.00
81311;DHT22;70779;52.506;5.492;2023-11-21T13:38:51;12.30;69.60
81311;DHT22;70779;52.506;5.492;2023-11-21T13:41:20;12.20;69.60
81311;DHT22;70779;52.506;5.492;2023-11-21T13:43:53;12.20;69.00
81311;DHT22;70779;52.506;5.492;2023-11-21T13:46:29;12.10;69.40
81311;DHT22;70779;52.506;5.492;2023-11-21T13:49:01;12.10;69.40
81311;DHT22;70779;52.506;5.492;2023-11-21T13:51:27;12.10;69.40
81311;DHT22;70779;52.506;5.492;2023-11-21T13:54:07;12.00;69.10
81311;DHT22;70779;52.506;5.492;2023-11-21T13:56:36;12.00;69.20
81311;DHT22;70779;52.506;5.492;2023-11-21T13:59:03;12.00;68.80
81311;DHT22;70779;52.506;5.492;2023-11-21T14:01:40;11.90;68.30
81311;DHT22;70779;52.506;5.492;2023-11-21T14:04:18;11.80;67.90
81311;DHT22;70779;52.506;5.492;2023-11-21T14:06:51;11.70;68.20
81311;DHT22;70779;52.506;5.492;2023-11-21T14:09:22;11.80;68.70
81311;DHT22;70779;52.506;5.492;2023-11-21T14:11:53;11.80;68.70
81311;DHT22;70779;52.506;5.492;2023-11-21T14:14:24;11.90;68.70
81311;DHT22;70779;52.506;5.492;2023-11-21T14:16:53;11.90;68.60
81311;DHT22;70779;52.506;5.492;2023-11-21T14:19:21;11.90;67.90
81311;DHT22;70779;52.506;5.492;2023-11-21T14:21:52;11.90;67.70
81311;DHT22;70779;52.506;5.492;2023-11-21T14:24:19;11.90;68.20
81311;DHT22;70779;52.506;5.492;2023-11-21T14:26:46;12.00;68.10
81311;DHT22;70779;52.506;5.492;2023-11-21T14:29:13;12.00;67.70
81311;DHT22;70779;52.506;5.492;2023-11-21T14:31:42;12.00;67.50
81311;DHT22;70779;52.506;5.492;2023-11-21T14:34:09;12.00;67.40
81311;DHT22;70779;52.506;5.492;2023-11-21T14:36:36;11.90;67.40
81311;DHT22;70779;52.506;5.492;2023-11-21T14:39:03;11.90;67.70
81311;DHT22;70779;52.506;5.492;2023-11-21T14:41:33;11.90;67.30
81311;DHT22;70779;52.506;5.492;2023-11-21T14:44:01;11.80;67.90
81311;DHT22;70779;52.506;5.492;2023-11-21T14:46:29;11.70;67.90
81311;DHT22;70779;52.506;5.492;2023-11-21T14:48:55;11.70;68.00
81311;DHT22;70779;52.506;5.492;2023-11-21T14:51:28;11.60;68.10
81311;DHT22;70779;52.506;5.492;2023-11-21T14:53:58;11.50;68.40
81311;DHT22;70779;52.506;5.492;2023-11-21T14:56:32;11.50;68.50
81311;DHT22;70779;52.506;5.492;2023-11-21T14:59:03;11.40;68.60
81311;DHT22;70779;52.506;5.492;2023-11-21T15:01:38;11.30;68.90
81311;DHT22;70779;52.506;5.492;2023-11-21T15:04:19;11.30;68.70
81311;DHT22;70779;52.506;5.492;2023-11-21T15:07:05;11.20;69.00
81311;DHT22;70779;52.506;5.492;2023-11-21T15:09:32;11.10;68.90
81311;DHT22;70779;52.506;5.492;2023-11-21T15:11:59;11.20;68.90
81311;DHT22;70779;52.506;5.492;2023-11-21T15:14:38;11.30;69.00
81311;DHT22;70779;52.506;5.492;2023-11-21T15:17:04;11.20;68.60
81311;DHT22;70779;52.506;5.492;2023-11-21T15:19:30;11.10;68.40
81311;DHT22;70779;52.506;5.492;2023-11-21T15:21:57;11.10;68.40
81311;DHT22;70779;52.506;5.492;2023-11-21T15:24:24;11.10;68.00
81311;DHT22;70779;52.506;5.492;2023-11-21T15:26:51;11.10;68.10
81311;DHT22;70779;52.506;5.492;2023-11-21T15:29:17;11.10;67.90
81311;DHT22;70779;52.506;5.492;2023-11-21T15:31:43;11.10;67.50
81311;DHT22;70779;52.506;5.492;2023-11-21T15:34:15;11.00;68.00
81311;DHT22;70779;52.506;5.492;2023-11-21T15:36:41;11.00;67.80
81311;DHT22;70779;52.506;5.492;2023-11-21T15:39:08;10.90;67.70
81311;DHT22;70779;52.506;5.492;2023-11-21T15:41:38;10.80;67.60
81311;DHT22;70779;52.506;5.492;2023-11-21T15:44:05;10.70;67.60
81311;DHT22;70779;52.506;5.492;2023-11-21T15:46:34;10.70;67.70
81311;DHT22;70779;52.506;5.492;2023-11-21T15:49:02;10.60;67.60
81311;DHT22;70779;52.506;5.492;2023-11-21T15:51:30;10.50;67.80
81311;DHT22;70779;52.506;5.492;2023-11-21T15:53:56;10.50;67.90
81311;DHT22;70779;52.506;5.492;2023-11-21T15:56:23;10.40;68.00
81311;DHT22;70779;52.506;5.492;2023-11-21T15:58:49;10.40;68.00
81311;DHT22;70779;52.506;5.492;2023-11-21T16:01:15;10.30;68.10
81311;DHT22;70779;52.506;5.492;2023-11-21T16:03:41;10.30;68.20
81311;DHT22;70779;52.506;5.492;2023-11-21T16:06:12;10.20;68.20
81311;DHT22;70779;52.506;5.492;2023-11-21T16:08:38;10.20;68.40
81311;DHT22;70779;52.506;5.492;2023-11-21T16:11:04;10.10;68.30
81311;DHT22;70779;52.506;5.492;2023-11-21T16:13:30;10.10;68.30
81311;DHT22;70779;52.506;5.492;2023-11-21T16:15:56;10.10;68.40
81311;DHT22;70779;52.506;5.492;2023-11-21T16:18:22;10.00;68.50
81311;DHT22;70779;52.506;5.492;2023-11-21T16:20:49;10.00;68.70
81311;DHT22;70779;52.506;5.492;2023-11-21T16:23:16;10.00;68.70
81311;DHT22;70779;52.506;5.492;2023-11-21T16:25:43;10.00;68.70
81311;DHT22;70779;52.506;5.492;2023-11-21T16:28:09;10.00;68.60
81311;DHT22;70779;52.506;5.492;2023-11-21T16:30:35;9.90;68.70
81311;DHT22;70779;52.506;5.492;2023-11-21T16:33:02;9.90;68.70
81311;DHT22;70779;52.506;5.492;2023-11-21T16:35:29;9.90;68.70
81311;DHT22;70779;52.506;5.492;2023-11-21T16:37:55;9.80;68.50
81311;DHT22;70779;52.506;5.492;2023-11-21T16:40:22;9.80;68.70
81311;DHT22;70779;52.506;5.492;2023-11-21T16:42:48;9.80;68.80
81311;DHT22;70779;52.506;5.492;2023-11-21T16:45:15;9.80;68.80
81311;DHT22;70779;52.506;5.492;2023-11-21T16:47:43;9.70;68.80
81311;DHT22;70779;52.506;5.492;2023-11-21T16:50:09;9.70;68.90
81311;DHT22;70779;52.506;5.492;2023-11-21T16:52:36;9.70;69.00
81311;DHT22;70779;52.506;5.492;2023-11-21T16:55:04;9.60;69.00
81311;DHT22;70779;52.506;5.492;2023-11-21T16:57:30;9.60;69.10
81311;DHT22;70779;52.506;5.492;2023-11-21T16:59:56;9.60;69.20
81311;DHT22;70779;52.506;5.492;2023-11-21T17:02:22;9.50;69.30
81311;DHT22;70779;52.506;5.492;2023-11-21T17:04:48;9.50;69.30
81311;DHT22;70779;52.506;5.492;2023-11-21T17:07:16;9.50;69.30
81311;DHT22;70779;52.506;5.492;2023-11-21T17:09:43;9.50;69.40
81311;DHT22;70779;52.506;5.492;2023-11-21T17:12:09;9.40;69.40
81311;DHT22;70779;52.506;5.492;2023-11-21T17:14:35;9.40;69.50
81311;DHT22;70779;52.506;5.492;2023-11-21T17:17:02;9.40;69.50
81311;DHT22;70779;52.506;5.492;2023-11-21T17:19:28;9.40;69.50
81311;DHT22;70779;52.506;5.492;2023-11-21T17:21:57;9.30;69.50
81311;DHT22;70779;52.506;5.492;2023-11-21T17:24:23;9.20;69.70
81311;DHT22;70779;52.506;5.492;2023-11-21T17:26:50;9.20;69.80
81311;DHT22;70779;52.506;5.492;2023-11-21T17:29:16;9.20;69.80
81311;DHT22;70779;52.506;5.492;2023-11-21T17:31:44;9.20;69.80
81311;DHT22;70779;52.506;5.492;2023-11-21T17:34:10;9.20;69.80
81311;DHT22;70779;52.506;5.492;2023-11-21T17:36:36;9.20;70.10
81311;DHT22;70779;52.506;5.492;2023-11-21T17:39:04;9.20;70.10
81311;DHT22;70779;52.506;5.492;2023-11-21T17:41:35;9.20;70.10
81311;DHT22;70779;52.506;5.492;2023-11-21T17:44:02;9.20;70.10
81311;DHT22;70779;52.506;5.492;2023-11-21T17:46:32;9.10;70.10
81311;DHT22;70779;52.506;5.492;2023-11-21T17:48:59;9.10;70.10
81311;DHT22;70779;52.506;5.492;2023-11-21T17:51:25;9.00;70.10
81311;DHT22;70779;52.506;5.492;2023-11-21T17:53:51;9.00;70.10
81311;DHT22;70779;52.506;5.492;2023-11-21T17:56:19;9.00;70.10
81311;DHT22;70779;52.506;5.492;2023-11-21T17:58:45;9.00;70.30
81311;DHT22;70779;52.506;5.492;2023-11-21T18:01:11;9.00;70.40
81311;DHT22;70779;52.506;5.492;2023-11-21T18:03:38;9.00;70.40
81311;DHT22;70779;52.506;5.492;2023-11-21T18:06:05;9.00;70.40
81311;DHT22;70779;52.506;5.492;2023-11-21T18:08:31;8.90;70.40
81311;DHT22;70779;52.506;5.492;2023-11-21T18:10:57;8.90;70.40
81311;DHT22;70779;52.506;5.492;2023-11-21T18:13:25;8.80;70.50
81311;DHT22;70779;52.506;5.492;2023-11-21T18:15:51;8.80;70.50
81311;DHT22;70779;52.506;5.492;2023-11-21T18:18:17;8.80;70.70
81311;DHT22;70779;52.506;5.492;2023-11-21T18:20:43;8.80;70.70
81311;DHT22;70779;52.506;5.492;2023-11-21T18:23:11;8.70;70.80
81311;DHT22;70779;52.506;5.492;2023-11-21T18:25:37;8.70;70.80
81311;DHT22;70779;52.506;5.492;2023-11-21T18:28:05;8.70;70.70
81311;DHT22;70779;52.506;5.492;2023-11-21T18:30:31;8.60;70.90
81311;DHT22;70779;52.506;5.492;2023-11-21T18:32:57;8.60;71.00
81311;DHT22;70779;52.506;5.492;2023-11-21T18:35:23;8.60;71.10
81311;DHT22;70779;52.506;5.492;2023-11-21T18:37:50;8.60;71.10
81311;DHT22;70779;52.506;5.492;2023-11-21T18:40:16;8.60;71.20
81311;DHT22;70779;52.506;5.492;2023-11-21T18:42:43;8.60;71.10
81311;DHT22;70779;52.506;5.492;2023-11-21T18:45:12;8.60;71.00
81311;DHT22;70779;52.506;5.492;2023-11-21T18:47:38;8.60;70.90
81311;DHT22;70779;52.506;5.492;2023-11-21T18:50:06;8.60;70.90
81311;DHT22;70779;52.506;5.492;2023-11-21T18:52:32;8.50;70.90
81311;DHT22;70779;52.506;5.492;2023-11-21T18:54:59;8.50;70.80
81311;DHT22;70779;52.506;5.492;2023-11-21T18:57:28;8.50;70.80
81311;DHT22;70779;52.506;5.492;2023-11-21T18:59:55;8.40;70.80
81311;DHT22;70779;52.506;5.492;2023-11-21T19:02:21;8.40;70.90
81311;DHT22;70779;52.506;5.492;2023-11-21T19:04:47;8.40;70.80
81311;DHT22;70779;52.506;5.492;2023-11-21T19:07:13;8.30;70.80
81311;DHT22;70779;52.506;5.492;2023-11-21T19:09:40;8.30;70.80
81311;DHT22;70779;52.506;5.492;2023-11-21T19:12:06;8.30;70.80
81311;DHT22;70779;52.506;5.492;2023-11-21T19:14:32;8.30;70.80
81311;DHT22;70779;52.506;5.492;2023-11-21T19:16:59;8.20;70.80
81311;DHT22;70779;52.506;5.492;2023-11-21T19:19:25;8.20;70.80
81311;DHT22;70779;52.506;5.492;2023-11-21T19:21:51;8.20;70.90
81311;DHT22;70779;52.506;5.492;2023-11-21T19:24:17;8.10;70.90
81311;DHT22;70779;52.506;5.492;2023-11-21T19:26:44;8.10;71.00
81311;DHT22;70779;52.506;5.492;2023-11-21T19:29:11;8.10;71.00
81311;DHT22;70779;52.506;5.492;2023-11-21T19:31:37;8.10;71.10
81311;DHT22;70779;52.506;5.492;2023-11-21T19:34:04;8.10;71.50
81311;DHT22;70779;52.506;5.492;2023-11-21T19:36:30;8.00;71.30
81311;DHT22;70779;52.506;5.492;2023-11-21T19:38:56;8.00;71.20
81311;DHT22;70779;52.506;5.492;2023-11-21T19:41:23;8.00;71.10
81311;DHT22;70779;52.506;5.492;2023-11-21T19:43:50;8.00;71.20
81311;DHT22;70779;52.506;5.492;2023-11-21T19:46:19;8.00;71.40
81311;DHT22;70779;52.506;5.492;2023-11-21T19:48:49;8.00;71.30
81311;DHT22;70779;52.506;5.492;2023-11-21T19:51:18;8.00;71.20
81311;DHT22;70779;52.506;5.492;2023-11-21T19:53:44;8.00;71.20
81311;DHT22;70779;52.506;5.492;2023-11-21T19:56:11;7.90;71.90
81311;DHT22;70779;52.506;5.492;2023-11-21T19:58:37;8.00;71.80
81311;DHT22;70779;52.506;5.492;2023-11-21T20:01:03;8.00;71.60
81311;DHT22;70779;52.506;5.492;2023-11-21T20:03:29;8.00;71.60
81311;DHT22;70779;52.506;5.492;2023-11-21T20:05:56;7.90;71.50
81311;DHT22;70779;52.506;5.492;2023-11-21T20:08:22;7.90;71.40
81311;DHT22;70779;52.506;5.492;2023-11-21T20:10:48;7.90;71.30
81311;DHT22;70779;52.506;5.492;2023-11-21T20:13:14;7.80;71.20
81311;DHT22;70779;52.506;5.492;2023-11-21T20:15:42;7.80;71.20
81311;DHT22;70779;52.506;5.492;2023-11-21T20:18:09;7.80;71.20
81311;DHT22;70779;52.506;5.492;2023-11-21T20:20:38;7.80;71.10
81311;DHT22;70779;52.506;5.492;2023-11-21T20:23:04;7.70;71.20
81311;DHT22;70779;52.506;5.492;2023-11-21T20:25:30;7.60;71.20
81311;DHT22;70779;52.506;5.492;2023-11-21T20:27:56;7.60;71.20
81311;DHT22;70779;52.506;5.492;2023-11-21T20:30:26;7.60;71.30
81311;DHT22;70779;52.506;5.492;2023-11-21T20:32:57;7.60;71.40
81311;DHT22;70779;52.506;5.492;2023-11-21T20:35:24;7.60;71.40
81311;DHT22;70779;52.506;5.492;2023-11-21T20:37:50;7.60;71.50
81311;DHT22;70779;52.506;5.492;2023-11-21T20:40:16;7.60;71.60
81311;DHT22;70779;52.506;5.492;2023-11-21T20:42:43;7.70;71.80
81311;DHT22;70779;52.506;5.492;2023-11-21T20:45:12;7.80;71.90
81311;DHT22;70779;52.506;5.492;2023-11-21T20:47:42;7.80;71.90
81311;DHT22;70779;52.506;5.492;2023-11-21T20:50:09;7.90;71.90
81311;DHT22;70779;52.506;5.492;2023-11-21T20:52:35;8.00;71.80
81311;DHT22;70779;52.506;5.492;2023-11-21T20:55:02;8.00;71.70
81311;DHT22;70779;52.506;5.492;2023-11-21T20:57:28;8.00;71.60
81311;DHT22;70779;52.506;5.492;2023-11-21T20:59:54;8.00;71.50
